createdAt,value
2019-05-30T00:00:08.884Z,0.00
2019-05-30T00:00:53.972Z,0.00
2019-05-30T00:01:54.158Z,0.00
2019-05-30T00:02:53.929Z,0.00
2019-05-30T00:03:53.967Z,0.00
2019-05-30T00:04:54.011Z,0.00
2019-05-30T00:05:54.189Z,0.00
2019-05-30T00:06:54.156Z,0.00
2019-05-30T00:07:54.041Z,0.00
2019-05-30T00:08:52.770Z,0.00
2019-05-30T00:09:52.792Z,0.00
2019-05-30T00:10:52.743Z,0.00
2019-05-30T00:11:52.738Z,0.00
2019-05-30T00:12:52.719Z,0.00
2019-05-30T00:13:52.708Z,0.00
2019-05-30T00:14:52.705Z,0.00
2019-05-30T00:15:52.705Z,0.00
2019-05-30T00:16:52.684Z,0.00
2019-05-30T00:17:52.673Z,0.00
2019-05-30T00:18:52.655Z,0.00
2019-05-30T00:19:52.647Z,0.00
2019-05-30T00:20:52.642Z,0.00
2019-05-30T00:21:52.625Z,0.00
2019-05-30T00:22:52.616Z,0.00
2019-05-30T00:23:52.597Z,0.00
2019-05-30T00:24:52.596Z,0.00
2019-05-30T00:25:52.574Z,0.00
2019-05-30T00:26:52.574Z,0.00
2019-05-30T00:27:52.549Z,0.00
2019-05-30T00:28:52.540Z,0.00
2019-05-30T00:29:52.529Z,0.00
2019-05-30T00:30:52.518Z,0.00
2019-05-30T00:31:52.506Z,0.00
2019-05-30T00:32:52.495Z,0.00
2019-05-30T00:33:52.492Z,0.00
2019-05-30T00:34:52.470Z,0.00
2019-05-30T00:35:52.470Z,0.00
2019-05-30T00:36:52.446Z,0.00
2019-05-30T00:37:52.444Z,0.00
2019-05-30T00:38:52.426Z,0.00
2019-05-30T00:39:52.413Z,0.00
2019-05-30T00:40:52.402Z,0.00
2019-05-30T00:41:52.390Z,0.00
2019-05-30T00:42:52.384Z,0.00
2019-05-30T00:43:52.383Z,0.00
2019-05-30T00:44:52.370Z,0.00
2019-05-30T00:45:52.343Z,0.00
2019-05-30T00:46:52.371Z,0.00
2019-05-30T00:47:52.332Z,0.00
2019-05-30T00:48:52.312Z,0.00
2019-05-30T00:49:52.350Z,0.00
2019-05-30T00:51:00.436Z,0.00
2019-05-30T00:52:33.958Z,0.00
2019-05-30T00:53:33.936Z,0.00
2019-05-30T00:55:15.587Z,0.00
2019-05-30T00:56:15.574Z,0.00
2019-05-30T00:57:15.567Z,0.00
2019-05-30T00:58:15.552Z,0.00
2019-05-30T00:59:15.546Z,0.00
2019-05-30T01:00:15.537Z,0.00
2019-05-30T01:01:15.527Z,0.00
2019-05-30T01:02:15.508Z,0.00
2019-05-30T01:03:15.494Z,0.00
2019-05-30T01:04:22.687Z,0.00
2019-05-30T01:05:58.791Z,0.00
2019-05-30T01:06:58.929Z,0.00
2019-05-30T01:07:58.845Z,0.00
2019-05-30T01:08:59.094Z,0.00
2019-05-30T01:09:59.156Z,0.00
2019-05-30T01:10:58.994Z,0.00
2019-05-30T01:11:59.129Z,0.00
2019-05-30T01:12:59.933Z,0.00
2019-05-30T01:13:58.964Z,0.00
2019-05-30T01:14:58.930Z,0.00
2019-05-30T01:15:58.964Z,0.00
2019-05-30T01:16:59.002Z,0.00
2019-05-30T01:17:59.032Z,0.00
2019-05-30T01:18:59.057Z,0.00
2019-05-30T01:19:59.069Z,0.00
2019-05-30T01:20:59.137Z,0.00
2019-05-30T01:21:59.137Z,0.00
2019-05-30T01:22:59.160Z,0.00
2019-05-30T01:23:59.286Z,0.00
2019-05-30T01:24:59.168Z,0.00
2019-05-30T01:25:59.303Z,0.00
2019-05-30T01:26:59.188Z,0.00
2019-05-30T01:27:59.466Z,0.00
2019-05-30T01:28:59.329Z,0.00
2019-05-30T01:29:59.378Z,0.00
2019-05-30T01:31:03.151Z,0.00
2019-05-30T01:31:59.439Z,0.00
2019-05-30T01:32:59.562Z,0.00
2019-05-30T01:33:59.453Z,0.00
2019-05-30T01:34:59.593Z,0.00
2019-05-30T01:35:59.435Z,0.00
2019-05-30T01:36:59.812Z,0.00
2019-05-30T01:37:59.570Z,0.00
2019-05-30T01:38:59.340Z,0.00
2019-05-30T01:39:58.274Z,0.00
2019-05-30T01:40:58.269Z,0.00
2019-05-30T01:41:58.247Z,0.00
2019-05-30T01:42:58.231Z,0.00
2019-05-30T01:43:58.225Z,0.00
2019-05-30T01:44:58.224Z,0.00
2019-05-30T01:45:58.217Z,0.00
2019-05-30T01:46:58.262Z,0.00
2019-05-30T01:47:58.254Z,0.00
2019-05-30T01:48:58.231Z,0.00
2019-05-30T01:49:58.322Z,0.00
2019-05-30T01:50:58.344Z,0.00
2019-05-30T01:51:58.399Z,0.00
2019-05-30T01:52:58.469Z,0.00
2019-05-30T01:53:58.378Z,0.00
2019-05-30T01:54:58.544Z,0.00
2019-05-30T01:55:58.549Z,0.00
2019-05-30T01:56:58.460Z,0.00
2019-05-30T01:57:58.699Z,0.00
2019-05-30T01:58:58.655Z,0.00
2019-05-30T01:59:58.696Z,0.00
2019-05-30T02:00:58.744Z,0.00
2019-05-30T02:01:58.903Z,0.00
2019-05-30T02:02:58.882Z,0.00
2019-05-30T02:03:59.093Z,0.00
2019-05-30T02:04:58.839Z,0.00
2019-05-30T02:05:58.911Z,0.00
2019-05-30T02:06:59.232Z,0.00
2019-05-30T02:07:59.013Z,0.00
2019-05-30T02:08:59.025Z,0.00
2019-05-30T02:09:59.076Z,0.00
2019-05-30T02:10:59.121Z,0.00
2019-05-30T02:11:59.226Z,0.00
2019-05-30T02:12:59.213Z,0.00
2019-05-30T02:13:57.888Z,0.00
2019-05-30T02:14:57.899Z,0.00
2019-05-30T02:15:57.868Z,0.00
2019-05-30T02:16:57.862Z,0.00
2019-05-30T02:17:57.861Z,0.00
2019-05-30T02:18:57.836Z,0.00
2019-05-30T02:19:57.828Z,0.00
2019-05-30T02:20:57.813Z,0.00
2019-05-30T02:21:57.831Z,0.00
2019-05-30T02:22:57.797Z,0.00
2019-05-30T02:23:57.782Z,0.00
2019-05-30T02:24:57.763Z,0.00
2019-05-30T02:25:57.767Z,4.00
2019-05-30T02:26:57.745Z,4.00
2019-05-30T02:27:57.733Z,4.00
2019-05-30T02:28:57.739Z,0.00
2019-05-30T02:29:57.740Z,0.00
2019-05-30T02:30:57.712Z,4.00
2019-05-30T02:31:57.724Z,4.00
2019-05-30T02:32:57.689Z,0.00
2019-05-30T02:33:57.703Z,4.00
2019-05-30T02:34:57.702Z,4.00
2019-05-30T02:35:57.684Z,4.00
2019-05-30T02:36:57.650Z,4.00
2019-05-30T02:37:57.659Z,4.00
2019-05-30T02:38:57.637Z,4.00
2019-05-30T02:40:02.468Z,4.00
2019-05-30T02:40:58.604Z,8.00
2019-05-30T02:41:57.592Z,8.00
2019-05-30T02:42:57.583Z,8.00
2019-05-30T02:43:57.598Z,8.00
2019-05-30T02:44:57.556Z,8.00
2019-05-30T02:45:57.549Z,8.00
2019-05-30T02:46:57.546Z,12.00
2019-05-30T02:47:57.539Z,12.00
2019-05-30T02:48:59.587Z,12.00
2019-05-30T02:49:57.513Z,12.00
2019-05-30T02:50:57.525Z,16.00
2019-05-30T02:51:57.488Z,16.00
2019-05-30T02:52:57.476Z,12.00
2019-05-30T02:53:57.497Z,16.00
2019-05-30T02:54:57.450Z,16.00
2019-05-30T02:55:57.429Z,16.00
2019-05-30T02:56:57.422Z,20.00
2019-05-30T02:57:57.418Z,20.00
2019-05-30T02:58:57.411Z,20.00
2019-05-30T02:59:57.421Z,24.00
2019-05-30T03:00:57.397Z,28.00
2019-05-30T03:02:01.979Z,28.00
2019-05-30T03:02:58.378Z,28.00
2019-05-30T03:03:57.383Z,28.00
2019-05-30T03:04:57.338Z,32.00
2019-05-30T03:05:57.360Z,32.00
2019-05-30T03:06:57.318Z,36.00
2019-05-30T03:07:57.306Z,36.00
2019-05-30T03:08:57.299Z,36.00
2019-05-30T03:09:57.287Z,36.00
2019-05-30T03:10:57.289Z,40.00
2019-05-30T03:11:57.284Z,44.00
2019-05-30T03:12:57.245Z,44.00
2019-05-30T03:13:57.234Z,48.00
2019-05-30T03:14:57.235Z,52.00
2019-05-30T03:15:57.221Z,52.00
2019-05-30T03:16:57.267Z,52.00
2019-05-30T03:17:57.224Z,56.00
2019-05-30T03:18:57.184Z,56.00
2019-05-30T03:19:57.173Z,64.00
2019-05-30T03:20:57.177Z,64.00
2019-05-30T03:21:57.153Z,68.00
2019-05-30T03:22:57.153Z,68.00
2019-05-30T03:23:57.121Z,72.00
2019-05-30T03:24:57.117Z,72.00
2019-05-30T03:25:57.116Z,76.00
2019-05-30T03:26:57.114Z,76.00
2019-05-30T03:27:57.120Z,80.00
2019-05-30T03:28:57.080Z,84.00
2019-05-30T03:29:57.063Z,84.00
2019-05-30T03:30:57.051Z,88.00
2019-05-30T03:31:57.043Z,88.00
2019-05-30T03:33:07.412Z,92.00
2019-05-30T03:33:58.009Z,96.00
2019-05-30T03:34:57.030Z,100.00
2019-05-30T03:35:56.993Z,100.00
2019-05-30T03:36:56.985Z,104.00
2019-05-30T03:37:56.995Z,108.00
2019-05-30T03:38:56.961Z,112.00
2019-05-30T03:39:56.958Z,112.00
2019-05-30T03:40:56.967Z,116.00
2019-05-30T03:41:56.929Z,120.00
2019-05-30T03:42:56.917Z,124.00
2019-05-30T03:43:56.902Z,128.00
2019-05-30T03:44:56.895Z,128.00
2019-05-30T03:45:56.906Z,132.00
2019-05-30T03:46:56.877Z,132.00
2019-05-30T03:47:56.862Z,136.00
2019-05-30T03:48:56.867Z,136.00
2019-05-30T03:49:56.836Z,140.00
2019-05-30T03:50:56.852Z,144.00
2019-05-30T03:51:56.841Z,144.00
2019-05-30T03:52:56.806Z,148.00
2019-05-30T03:53:56.817Z,152.00
2019-05-30T03:54:56.811Z,160.00
2019-05-30T03:55:56.778Z,160.00
2019-05-30T03:56:56.794Z,164.00
2019-05-30T03:57:56.761Z,168.00
2019-05-30T03:58:56.742Z,172.00
2019-05-30T03:59:56.727Z,176.00
2019-05-30T04:00:56.721Z,180.00
2019-05-30T04:01:56.709Z,184.00
2019-05-30T04:02:58.883Z,184.00
2019-05-30T04:03:56.686Z,188.00
2019-05-30T04:04:56.676Z,188.00
2019-05-30T04:05:56.677Z,196.00
2019-05-30T04:06:56.669Z,200.00
2019-05-30T04:07:56.644Z,200.00
2019-05-30T04:08:56.639Z,200.00
2019-05-30T04:09:56.617Z,208.00
2019-05-30T04:10:56.639Z,208.00
2019-05-30T04:11:56.621Z,212.00
2019-05-30T04:12:56.589Z,216.00
2019-05-30T04:13:56.585Z,216.00
2019-05-30T04:14:56.576Z,220.00
2019-05-30T04:15:56.555Z,224.00
2019-05-30T04:16:56.548Z,224.00
2019-05-30T04:17:56.532Z,228.00
2019-05-30T04:18:56.659Z,232.00
2019-05-30T04:19:56.579Z,236.00
2019-05-30T04:20:56.497Z,236.00
2019-05-30T04:21:56.483Z,240.00
2019-05-30T04:22:56.477Z,244.00
2019-05-30T04:23:56.472Z,248.00
2019-05-30T04:24:56.461Z,252.00
2019-05-30T04:26:00.363Z,256.00
2019-05-30T04:26:56.431Z,256.00
2019-05-30T04:27:56.415Z,260.00
2019-05-30T04:28:56.417Z,264.00
2019-05-30T04:29:56.407Z,264.00
2019-05-30T04:30:56.390Z,268.00
2019-05-30T04:31:56.376Z,272.00
2019-05-30T04:33:16.068Z,280.00
2019-05-30T04:33:57.355Z,280.00
2019-05-30T04:34:56.348Z,284.00
2019-05-30T04:35:56.329Z,288.00
2019-05-30T04:36:56.322Z,292.00
2019-05-30T04:37:56.311Z,296.00
2019-05-30T04:38:56.292Z,300.00
2019-05-30T04:39:56.296Z,300.00
2019-05-30T04:40:56.279Z,304.00
2019-05-30T04:41:56.267Z,308.00
2019-05-30T04:42:56.274Z,316.00
2019-05-30T04:43:56.243Z,320.00
2019-05-30T04:44:56.241Z,324.00
2019-05-30T04:45:56.230Z,328.00
2019-05-30T04:46:56.204Z,328.00
2019-05-30T04:47:56.203Z,332.00
2019-05-30T04:48:56.187Z,340.00
2019-05-30T04:49:56.183Z,340.00
2019-05-30T04:50:56.161Z,348.00
2019-05-30T04:51:56.158Z,356.00
2019-05-30T04:52:56.173Z,360.00
2019-05-30T04:53:56.164Z,364.00
2019-05-30T04:54:56.122Z,372.00
2019-05-30T04:55:56.112Z,376.00
2019-05-30T04:56:56.111Z,384.00
2019-05-30T04:57:56.089Z,388.00
2019-05-30T04:58:56.087Z,396.00
2019-05-30T04:59:56.061Z,400.00
2019-05-30T05:00:56.052Z,400.00
2019-05-30T05:01:56.056Z,404.00
2019-05-30T05:02:56.046Z,412.00
2019-05-30T05:03:56.022Z,416.00
2019-05-30T05:04:56.010Z,424.00
2019-05-30T05:05:56.035Z,428.00
2019-05-30T05:06:55.994Z,436.00
2019-05-30T05:07:55.984Z,440.00
2019-05-30T05:08:55.965Z,444.00
2019-05-30T05:09:55.966Z,456.00
2019-05-30T05:10:55.948Z,444.00
2019-05-30T05:11:55.928Z,444.00
2019-05-30T05:12:55.921Z,448.00
2019-05-30T05:13:55.939Z,468.00
2019-05-30T05:14:55.901Z,488.00
2019-05-30T05:15:55.901Z,500.00
2019-05-30T05:16:55.871Z,504.00
2019-05-30T05:17:55.876Z,512.00
2019-05-30T05:18:55.875Z,516.00
2019-05-30T05:19:55.861Z,520.00
2019-05-30T05:20:55.837Z,524.00
2019-05-30T05:21:55.841Z,532.00
2019-05-30T05:22:55.814Z,540.00
2019-05-30T05:23:55.802Z,544.00
2019-05-30T05:24:55.792Z,548.00
2019-05-30T05:26:00.989Z,556.00
2019-05-30T05:26:56.778Z,528.00
2019-05-30T05:27:55.778Z,528.00
2019-05-30T05:28:55.742Z,548.00
2019-05-30T05:29:55.737Z,560.00
2019-05-30T05:30:55.729Z,612.00
2019-05-30T05:31:55.703Z,616.00
2019-05-30T05:32:55.702Z,628.00
2019-05-30T05:33:57.345Z,640.00
2019-05-30T05:34:55.670Z,644.00
2019-05-30T05:35:55.660Z,656.00
2019-05-30T05:36:55.673Z,660.00
2019-05-30T05:37:55.649Z,668.00
2019-05-30T05:38:55.649Z,680.00
2019-05-30T05:39:55.614Z,688.00
2019-05-30T05:40:55.612Z,688.00
2019-05-30T05:41:55.609Z,696.00
2019-05-30T05:42:55.588Z,704.00
2019-05-30T05:43:55.612Z,716.00
2019-05-30T05:44:55.586Z,712.00
2019-05-30T05:45:55.552Z,700.00
2019-05-30T05:46:55.540Z,696.00
2019-05-30T05:47:55.547Z,688.00
2019-05-30T05:48:55.514Z,680.00
2019-05-30T05:49:55.646Z,680.00
2019-05-30T05:50:55.519Z,676.00
2019-05-30T05:51:55.482Z,664.00
2019-05-30T05:52:55.498Z,676.00
2019-05-30T05:53:55.473Z,684.00
2019-05-30T05:54:55.457Z,620.00
2019-05-30T05:55:55.451Z,636.00
2019-05-30T05:56:55.431Z,652.00
2019-05-30T05:57:55.478Z,680.00
2019-05-30T05:58:55.459Z,704.00
2019-05-30T05:59:55.397Z,760.00
2019-05-30T06:00:56.427Z,768.00
2019-05-30T06:01:55.391Z,780.00
2019-05-30T06:02:55.357Z,784.00
2019-05-30T06:03:55.358Z,780.00
2019-05-30T06:04:55.346Z,792.00
2019-05-30T06:05:55.356Z,804.00
2019-05-30T06:06:55.342Z,812.00
2019-05-30T06:07:55.347Z,824.00
2019-05-30T06:08:55.302Z,828.00
2019-05-30T06:09:55.299Z,828.00
2019-05-30T06:10:55.289Z,824.00
2019-05-30T06:11:55.257Z,848.00
2019-05-30T06:12:55.307Z,864.00
2019-05-30T06:13:55.238Z,888.00
2019-05-30T06:14:55.225Z,900.00
2019-05-30T06:15:55.225Z,908.00
2019-05-30T06:16:56.001Z,928.00
2019-05-30T06:17:55.207Z,924.00
2019-05-30T06:18:55.175Z,932.00
2019-05-30T06:19:55.167Z,932.00
2019-05-30T06:20:55.161Z,928.00
2019-05-30T06:21:55.153Z,932.00
2019-05-30T06:22:55.141Z,928.00
2019-05-30T06:23:55.135Z,932.00
2019-05-30T06:24:55.113Z,924.00
2019-05-30T06:25:55.095Z,928.00
2019-05-30T06:26:55.103Z,936.00
2019-05-30T06:27:55.095Z,940.00
2019-05-30T06:28:55.077Z,948.00
2019-05-30T06:29:55.058Z,960.00
2019-05-30T06:30:58.736Z,912.00
2019-05-30T06:31:55.039Z,952.00
2019-05-30T06:32:55.057Z,976.00
2019-05-30T06:33:55.073Z,1004.00
2019-05-30T06:34:55.041Z,1020.00
2019-05-30T06:35:54.985Z,1040.00
2019-05-30T06:36:54.973Z,1060.00
2019-05-30T06:37:54.970Z,1076.00
2019-05-30T06:38:54.995Z,1100.00
2019-05-30T06:39:54.962Z,1112.00
2019-05-30T06:40:54.956Z,1128.00
2019-05-30T06:41:54.922Z,1132.00
2019-05-30T06:42:54.903Z,1136.00
2019-05-30T06:43:54.918Z,1156.00
2019-05-30T06:44:54.907Z,1168.00
2019-05-30T06:45:54.884Z,1184.00
2019-05-30T06:46:54.877Z,1200.00
2019-05-30T06:47:54.852Z,1208.00
2019-05-30T06:48:54.847Z,1268.00
2019-05-30T06:49:54.834Z,1316.00
2019-05-30T06:50:54.855Z,1404.00
2019-05-30T06:51:54.919Z,2496.00
2019-05-30T06:52:54.795Z,2504.00
2019-05-30T06:53:54.790Z,6136.00
2019-05-30T06:54:54.777Z,14228.00
2019-05-30T06:55:54.783Z,29760.00
2019-05-30T06:56:54.771Z,51680.00
2019-05-30T06:57:54.751Z,58624.00
2019-05-30T06:58:54.734Z,58944.00
2019-05-30T06:59:54.727Z,55680.00
2019-05-30T07:00:54.755Z,40384.00
2019-05-30T07:01:54.724Z,35712.00
2019-05-30T07:02:54.795Z,11268.00
2019-05-30T07:03:54.834Z,7072.00
2019-05-30T07:04:55.279Z,2148.00
2019-05-30T07:05:55.311Z,1672.00
2019-05-30T07:06:54.950Z,1564.00
2019-05-30T07:07:54.721Z,1456.00
2019-05-30T07:08:54.644Z,1432.00
2019-05-30T07:09:54.608Z,1432.00
2019-05-30T07:10:54.603Z,2404.00
2019-05-30T07:11:54.602Z,2140.00
2019-05-30T07:12:54.569Z,1508.00
2019-05-30T07:13:54.579Z,1516.00
2019-05-30T07:14:54.545Z,1904.00
2019-05-30T07:15:54.538Z,1440.00
2019-05-30T07:16:54.534Z,1356.00
2019-05-30T07:17:54.525Z,1364.00
2019-05-30T07:18:54.562Z,1336.00
2019-05-30T07:19:54.512Z,1512.00
2019-05-30T07:20:54.488Z,1380.00
2019-05-30T07:21:54.470Z,1376.00
2019-05-30T07:22:54.471Z,1412.00
2019-05-30T07:23:54.570Z,1552.00
2019-05-30T07:24:54.511Z,4288.00
2019-05-30T07:25:54.418Z,2164.00
2019-05-30T07:26:54.460Z,1516.00
2019-05-30T07:27:54.409Z,1444.00
2019-05-30T07:28:54.406Z,1424.00
2019-05-30T07:29:54.419Z,1584.00
2019-05-30T07:30:54.450Z,1480.00
2019-05-30T07:31:54.451Z,1496.00
2019-05-30T07:32:54.351Z,1636.00
2019-05-30T07:33:54.355Z,1416.00
2019-05-30T07:35:06.062Z,1396.00
2019-05-30T07:35:55.303Z,1404.00
2019-05-30T07:36:54.355Z,1708.00
2019-05-30T07:37:54.314Z,1496.00
2019-05-30T07:38:54.294Z,1508.00
2019-05-30T07:39:54.294Z,1504.00
2019-05-30T07:40:54.274Z,1516.00
2019-05-30T07:42:05.723Z,1528.00
2019-05-30T07:42:55.283Z,1520.00
2019-05-30T07:43:54.239Z,1588.00
2019-05-30T07:44:54.223Z,1552.00
2019-05-30T07:45:58.159Z,1648.00
2019-05-30T07:46:54.245Z,1640.00
2019-05-30T07:47:54.211Z,1548.00
2019-05-30T07:48:54.158Z,1576.00
2019-05-30T07:49:54.183Z,1588.00
2019-05-30T07:50:54.152Z,1660.00
2019-05-30T07:51:54.158Z,1504.00
2019-05-30T07:52:54.150Z,1520.00
2019-05-30T07:53:54.108Z,1516.00
2019-05-30T07:54:54.116Z,1516.00
2019-05-30T07:55:54.087Z,1524.00
2019-05-30T07:56:54.081Z,1580.00
2019-05-30T07:57:54.081Z,4592.00
2019-05-30T07:58:54.074Z,2388.00
2019-05-30T07:59:54.077Z,3220.00
2019-05-30T08:00:54.075Z,2904.00
2019-05-30T08:01:54.030Z,2544.00
2019-05-30T08:02:54.023Z,2628.00
2019-05-30T08:03:54.004Z,1392.00
2019-05-30T08:04:54.003Z,2252.00
2019-05-30T08:05:53.999Z,1720.00
2019-05-30T08:06:53.967Z,1524.00
2019-05-30T08:07:53.954Z,1564.00
2019-05-30T08:08:53.962Z,1808.00
2019-05-30T08:09:53.987Z,1716.00
2019-05-30T08:11:08.449Z,1988.00
2019-05-30T08:11:54.947Z,1600.00
2019-05-30T08:12:53.919Z,2088.00
2019-05-30T08:13:53.903Z,2552.00
2019-05-30T08:14:53.893Z,2964.00
2019-05-30T08:15:53.884Z,3500.00
2019-05-30T08:16:53.843Z,1568.00
2019-05-30T08:17:53.836Z,1508.00
2019-05-30T08:18:53.859Z,1504.00
2019-05-30T08:20:00.983Z,1436.00
2019-05-30T08:21:36.355Z,2268.00
2019-05-30T08:22:36.230Z,1724.00
2019-05-30T08:23:36.315Z,1484.00
2019-05-30T08:24:36.488Z,1492.00
2019-05-30T08:25:36.578Z,1572.00
2019-05-30T08:26:36.404Z,1492.00
2019-05-30T08:27:36.486Z,1488.00
2019-05-30T08:28:36.463Z,1496.00
2019-05-30T08:29:36.476Z,1524.00
2019-05-30T08:30:36.657Z,1544.00
2019-05-30T08:31:36.866Z,1600.00
2019-05-30T08:32:36.953Z,1512.00
2019-05-30T08:33:35.850Z,3752.00
2019-05-30T08:34:36.675Z,1872.00
2019-05-30T08:35:45.400Z,4324.00
2019-05-30T08:36:37.086Z,1748.00
2019-05-30T08:37:37.158Z,3620.00
2019-05-30T08:38:35.779Z,1600.00
2019-05-30T08:39:35.786Z,1756.00
2019-05-30T08:40:35.784Z,1620.00
2019-05-30T08:41:35.742Z,1636.00
2019-05-30T08:42:35.736Z,1652.00
2019-05-30T08:43:35.760Z,1668.00
2019-05-30T08:44:35.942Z,2084.00
2019-05-30T08:45:36.140Z,1692.00
2019-05-30T08:46:35.859Z,1716.00
2019-05-30T08:47:36.014Z,1764.00
2019-05-30T08:48:36.194Z,1756.00
2019-05-30T08:49:36.177Z,2108.00
2019-05-30T08:50:36.818Z,1776.00
2019-05-30T08:51:36.239Z,1812.00
2019-05-30T08:52:36.460Z,1756.00
2019-05-30T08:53:36.398Z,1824.00
2019-05-30T08:54:36.443Z,1860.00
2019-05-30T08:55:36.420Z,1904.00
2019-05-30T08:56:36.499Z,1892.00
2019-05-30T08:57:36.655Z,1908.00
2019-05-30T08:58:36.707Z,2368.00
2019-05-30T08:59:36.676Z,1956.00
2019-05-30T09:00:35.554Z,1972.00
2019-05-30T09:01:35.774Z,2052.00
2019-05-30T09:02:36.558Z,1996.00
2019-05-30T09:03:35.837Z,2080.00
2019-05-30T09:04:35.733Z,2016.00
2019-05-30T09:05:35.963Z,2032.00
2019-05-30T09:06:35.825Z,2028.00
2019-05-30T09:07:36.434Z,2164.00
2019-05-30T09:08:35.974Z,2140.00
2019-05-30T09:09:36.114Z,2052.00
2019-05-30T09:10:35.966Z,2060.00
2019-05-30T09:11:35.876Z,2064.00
2019-05-30T09:12:37.583Z,2068.00
2019-05-30T09:13:35.988Z,2116.00
2019-05-30T09:14:37.359Z,2084.00
2019-05-30T09:15:37.454Z,2168.00
2019-05-30T09:16:35.357Z,2148.00
2019-05-30T09:17:35.360Z,2076.00
2019-05-30T09:18:36.833Z,2080.00
2019-05-30T09:19:35.344Z,2168.00
2019-05-30T09:20:35.307Z,3456.00
2019-05-30T09:21:35.341Z,2220.00
2019-05-30T09:22:35.297Z,2180.00
2019-05-30T09:23:35.334Z,2232.00
2019-05-30T09:24:35.280Z,2172.00
2019-05-30T09:25:35.257Z,2096.00
2019-05-30T09:26:35.244Z,2096.00
2019-05-30T09:27:35.238Z,2152.00
2019-05-30T09:28:35.214Z,2108.00
2019-05-30T09:29:35.259Z,2112.00
2019-05-30T09:30:35.233Z,2136.00
2019-05-30T09:31:35.219Z,2148.00
2019-05-30T09:32:35.175Z,2128.00
2019-05-30T09:33:35.165Z,2152.00
2019-05-30T09:34:35.164Z,2156.00
2019-05-30T09:35:35.170Z,2220.00
2019-05-30T09:36:35.157Z,2504.00
2019-05-30T09:37:35.164Z,2748.00
2019-05-30T09:38:35.107Z,2176.00
2019-05-30T09:39:35.105Z,2164.00
2019-05-30T09:40:35.096Z,2176.00
2019-05-30T09:41:35.096Z,2168.00
2019-05-30T09:42:35.078Z,2184.00
2019-05-30T09:43:35.101Z,2164.00
2019-05-30T09:44:36.937Z,2144.00
2019-05-30T09:45:35.043Z,2164.00
2019-05-30T09:46:35.040Z,2152.00
2019-05-30T09:47:35.018Z,2152.00
2019-05-30T09:48:35.085Z,2192.00
2019-05-30T09:49:35.061Z,2188.00
2019-05-30T09:50:34.999Z,2172.00
2019-05-30T09:51:34.983Z,2164.00
2019-05-30T09:52:34.963Z,2180.00
2019-05-30T09:53:34.969Z,2196.00
2019-05-30T09:54:34.933Z,2384.00
2019-05-30T09:55:34.929Z,2292.00
2019-05-30T09:56:34.927Z,2200.00
2019-05-30T09:57:34.899Z,2156.00
2019-05-30T09:58:34.893Z,2192.00
2019-05-30T09:59:34.901Z,2148.00
2019-05-30T10:00:34.874Z,2180.00
2019-05-30T10:01:34.864Z,2180.00
2019-05-30T10:02:34.882Z,2144.00
2019-05-30T10:03:34.845Z,2160.00
2019-05-30T10:04:34.881Z,2144.00
2019-05-30T10:05:34.828Z,2156.00
2019-05-30T10:06:34.815Z,2144.00
2019-05-30T10:07:34.818Z,2156.00
2019-05-30T10:08:34.793Z,2152.00
2019-05-30T10:09:34.792Z,2164.00
2019-05-30T10:10:34.767Z,2164.00
2019-05-30T10:11:34.784Z,2160.00
2019-05-30T10:12:34.797Z,2160.00
2019-05-30T10:13:34.733Z,2168.00
2019-05-30T10:14:34.732Z,2144.00
2019-05-30T10:15:34.710Z,2164.00
2019-05-30T10:16:34.715Z,2144.00
2019-05-30T10:17:34.687Z,2144.00
2019-05-30T10:18:34.688Z,2144.00
2019-05-30T10:19:34.662Z,2148.00
2019-05-30T10:20:34.698Z,2140.00
2019-05-30T10:21:34.644Z,2148.00
2019-05-30T10:22:34.643Z,2160.00
2019-05-30T10:23:34.620Z,2164.00
2019-05-30T10:24:34.613Z,2180.00
2019-05-30T10:25:34.599Z,2176.00
2019-05-30T10:26:34.583Z,2240.00
2019-05-30T10:27:34.573Z,2852.00
2019-05-30T10:28:34.576Z,3060.00
2019-05-30T10:29:34.566Z,2288.00
2019-05-30T10:30:34.554Z,2240.00
2019-05-30T10:31:34.532Z,2240.00
2019-05-30T10:32:34.522Z,2260.00
2019-05-30T10:33:34.523Z,2260.00
2019-05-30T10:34:34.502Z,2264.00
2019-05-30T10:35:34.484Z,2276.00
2019-05-30T10:36:43.749Z,2320.00
2019-05-30T10:37:35.484Z,2964.00
2019-05-30T10:38:34.456Z,2996.00
2019-05-30T10:39:34.460Z,3516.00
2019-05-30T10:40:34.426Z,6744.00
2019-05-30T10:41:34.435Z,5556.00
2019-05-30T10:42:34.407Z,5976.00
2019-05-30T10:43:34.400Z,2768.00
2019-05-30T10:44:34.402Z,2432.00
2019-05-30T10:45:34.379Z,3004.00
2019-05-30T10:46:34.393Z,5900.00
2019-05-30T10:47:34.350Z,3164.00
2019-05-30T10:48:34.344Z,3048.00
2019-05-30T10:49:35.307Z,3268.00
2019-05-30T10:50:34.333Z,6192.00
2019-05-30T10:51:34.306Z,8124.00
2019-05-30T10:52:34.301Z,10912.00
2019-05-30T10:53:37.452Z,16672.00
2019-05-30T10:54:34.284Z,11692.00
2019-05-30T10:55:34.269Z,17440.00
2019-05-30T10:56:34.260Z,24448.00
2019-05-30T10:57:34.251Z,25728.00
2019-05-30T10:58:34.234Z,25088.00
2019-05-30T10:59:34.221Z,24480.00
2019-05-30T11:00:34.212Z,25344.00
2019-05-30T11:01:34.205Z,25152.00
2019-05-30T11:02:34.193Z,24160.00
2019-05-30T11:03:34.234Z,22144.00
2019-05-30T11:04:34.174Z,21280.00
2019-05-30T11:05:34.155Z,21504.00
2019-05-30T11:06:34.770Z,20192.00
2019-05-30T11:07:34.146Z,20032.00
2019-05-30T11:08:34.122Z,19904.00
2019-05-30T11:09:34.126Z,20352.00
2019-05-30T11:10:34.103Z,19584.00
2019-05-30T11:11:34.091Z,18656.00
2019-05-30T11:12:34.081Z,17248.00
2019-05-30T11:13:34.078Z,16448.00
2019-05-30T11:14:34.059Z,15648.00
2019-05-30T11:15:34.055Z,12160.00
2019-05-30T11:16:34.043Z,11048.00
2019-05-30T11:17:34.034Z,9172.00
2019-05-30T11:18:34.027Z,8400.00
2019-05-30T11:19:34.027Z,7528.00
2019-05-30T11:20:33.993Z,6264.00
2019-05-30T11:21:33.984Z,5436.00
2019-05-30T11:22:33.981Z,5728.00
2019-05-30T11:23:33.973Z,6472.00
2019-05-30T11:24:33.952Z,6532.00
2019-05-30T11:25:33.939Z,5092.00
2019-05-30T11:26:33.930Z,4404.00
2019-05-30T11:27:33.953Z,4260.00
2019-05-30T11:28:33.930Z,4248.00
2019-05-30T11:29:33.898Z,4188.00
2019-05-30T11:30:33.890Z,4056.00
2019-05-30T11:31:33.875Z,4104.00
2019-05-30T11:32:33.896Z,3976.00
2019-05-30T11:33:33.854Z,3812.00
2019-05-30T11:34:33.841Z,3692.00
2019-05-30T11:35:33.836Z,3484.00
2019-05-30T11:36:33.818Z,3352.00
2019-05-30T11:37:33.810Z,3048.00
2019-05-30T11:38:33.863Z,2808.00
2019-05-30T11:39:33.800Z,2728.00
2019-05-30T11:40:33.783Z,2668.00
2019-05-30T11:41:33.783Z,2672.00
2019-05-30T11:42:33.772Z,2676.00
2019-05-30T11:43:33.752Z,2652.00
2019-05-30T11:44:33.729Z,2708.00
2019-05-30T11:45:33.723Z,2816.00
2019-05-30T11:46:33.713Z,2796.00
2019-05-30T11:47:33.693Z,2860.00
2019-05-30T11:48:33.692Z,2864.00
2019-05-30T11:49:33.682Z,2836.00
2019-05-30T11:50:33.668Z,2876.00
2019-05-30T11:51:33.655Z,2876.00
2019-05-30T11:52:33.647Z,2896.00
2019-05-30T11:53:33.657Z,2872.00
2019-05-30T11:54:33.622Z,2856.00
2019-05-30T11:55:33.623Z,2828.00
2019-05-30T11:56:33.621Z,2816.00
2019-05-30T11:57:33.612Z,2836.00
2019-05-30T11:58:33.586Z,2744.00
2019-05-30T11:59:33.586Z,2752.00
2019-05-30T12:00:33.564Z,3000.00
2019-05-30T12:01:33.544Z,2964.00
2019-05-30T12:02:33.539Z,3060.00
2019-05-30T12:03:33.529Z,3016.00
2019-05-30T12:04:33.523Z,2960.00
2019-05-30T12:05:33.514Z,3088.00
2019-05-30T12:06:33.502Z,3076.00
2019-05-30T12:07:36.677Z,3068.00
2019-05-30T12:08:33.478Z,3048.00
2019-05-30T12:09:33.464Z,3080.00
2019-05-30T12:10:33.451Z,3040.00
2019-05-30T12:11:33.448Z,3092.00
2019-05-30T12:12:33.458Z,3116.00
2019-05-30T12:13:33.422Z,3120.00
2019-05-30T12:14:33.414Z,3152.00
2019-05-30T12:15:33.400Z,3140.00
2019-05-30T12:16:33.402Z,3188.00
2019-05-30T12:17:33.382Z,3228.00
2019-05-30T12:18:33.372Z,3252.00
2019-05-30T12:19:33.354Z,3248.00
2019-05-30T12:20:33.351Z,3248.00
2019-05-30T12:21:33.334Z,3296.00
2019-05-30T12:22:33.320Z,3328.00
2019-05-30T12:23:33.310Z,3352.00
2019-05-30T12:24:33.298Z,3416.00
2019-05-30T12:25:33.360Z,3488.00
2019-05-30T12:26:34.039Z,3476.00
2019-05-30T12:27:33.278Z,3464.00
2019-05-30T12:28:33.250Z,3552.00
2019-05-30T12:29:33.241Z,3632.00
2019-05-30T12:30:33.232Z,3528.00